Decoded Metar for KLEW (AUBURN/LEWISTON in ME, USA) (IATA:LEW) | Meteo·Mobile Aviation Weather
aviador You're here:

KLEW Decoded Metar

AUBURN/LEWISTON in ME, USA
Report Time2018-12-17 14:30:00
UTC Time2018-12-17 14:36:40
Flight Rules ifr IFR
Wind350° at 06 kt
W.Decomp.*RWY 35: 5.7 kt HW 1.8 kt RCW
RWY 04: 5.0 kt HW 3.3 kt LCW
W.Rank350° ranks 25
Current wind is below 350° avg. (6.6)
Visibility3219 m
Phenomena:Light Snow
Mist
Clouds:Overcast 007 Hf
Expected CloudBase > 400 ft AGL from Temp-Dew spread
Ceiling700 ft
Temp00°C (ISA -14)
Dew Point-1°C (93% RH)
AAT-4.3°C
QNH1003 hPa
Density Alt-1,050 ft
Elevation289 ft
Report Wrong Elevation
Raw Report
KLEW 171430Z AUTO 35006KT 2SM -SN BR OVC007 00/M01 A2963 RMK AO2
VIS 1 1/4V5 CIG 003V009 P0000 FZRANO=

Extra information for KLEW:More info

Metar Taf Metar & Taf Last 4 Metars F.Rules Stats Wind Profile Meteogram Temp Stats Airport Information Weather charts Add Link Nearby VenuesMetar ALERT Operation Metar Decoded Social comments

AIRNAV info for KLEW